createdAt,value
2019-02-26T00:00:44.871Z,47.10
2019-02-26T00:03:11.194Z,47.30
2019-02-26T00:05:40.215Z,46.70
2019-02-26T00:08:14.550Z,46.50
2019-02-26T00:10:56.706Z,46.40
2019-02-26T00:16:17.698Z,45.80
2019-02-26T00:19:02.614Z,45.60
2019-02-26T00:21:31.108Z,45.20
2019-02-26T00:24:30.312Z,44.80
2019-02-26T00:27:07.629Z,44.40
2019-02-26T00:29:50.931Z,44.00
2019-02-26T00:32:43.341Z,43.70
2019-02-26T00:35:25.744Z,43.40
2019-02-26T00:38:01.439Z,43.40
2019-02-26T00:40:32.661Z,43.40
2019-02-26T00:43:04.763Z,43.40
2019-02-26T00:45:51.072Z,43.30
2019-02-26T00:48:21.470Z,43.20
2019-02-26T00:50:52.233Z,43.20
2019-02-26T00:53:23.516Z,43.20
2019-02-26T00:56:19.561Z,43.10
2019-02-26T00:58:51.350Z,43.00
2019-02-26T01:01:23.891Z,43.00
2019-02-26T01:03:52.974Z,42.90
2019-02-26T01:06:22.548Z,42.80
2019-02-26T01:08:55.916Z,42.80
2019-02-26T01:11:25.926Z,42.80
2019-02-26T01:13:57.265Z,42.70
2019-02-26T01:16:32.808Z,42.60
2019-02-26T01:19:01.706Z,42.60
2019-02-26T01:21:34.113Z,42.60
2019-02-26T01:24:06.387Z,42.60
2019-02-26T01:26:35.319Z,42.60
2019-02-26T01:29:18.975Z,42.60
2019-02-26T01:31:43.478Z,42.60
2019-02-26T01:34:14.077Z,42.70
2019-02-26T01:36:44.858Z,42.70
2019-02-26T01:39:23.275Z,42.50
2019-02-26T01:41:54.083Z,42.50
2019-02-26T01:44:30.147Z,42.60
2019-02-26T01:47:00.864Z,42.60
2019-02-26T01:49:32.631Z,42.60
2019-02-26T01:52:08.416Z,42.60
2019-02-26T01:54:39.593Z,42.50
2019-02-26T01:57:13.083Z,42.40
2019-02-26T01:59:42.142Z,42.30
2019-02-26T02:02:17.313Z,42.30
2019-02-26T02:04:44.605Z,42.30
2019-02-26T02:07:13.720Z,42.30
2019-02-26T02:09:46.551Z,41.90
2019-02-26T02:12:15.161Z,41.80
2019-02-26T02:14:49.993Z,42.00
2019-02-26T02:17:21.462Z,41.90
2019-02-26T02:19:50.355Z,41.80
2019-02-26T02:22:24.547Z,41.60
2019-02-26T02:24:55.579Z,41.60
2019-02-26T02:27:35.961Z,41.80
2019-02-26T02:30:17.875Z,41.90
2019-02-26T02:35:29.251Z,42.00
2019-02-26T02:38:19.697Z,42.00
2019-02-26T02:40:59.799Z,42.00
2019-02-26T02:43:34.653Z,42.10
2019-02-26T02:46:09.858Z,42.10
2019-02-26T02:48:50.519Z,42.00
2019-02-26T02:51:34.731Z,42.00
2019-02-26T02:54:26.468Z,42.00
2019-02-26T02:57:07.583Z,42.10
2019-02-26T02:59:49.668Z,42.10
2019-02-26T03:02:30.100Z,42.10
2019-02-26T03:05:11.681Z,42.10
2019-02-26T03:07:44.924Z,42.20
2019-02-26T03:10:33.506Z,42.30
2019-02-26T03:19:14.414Z,42.10
2019-02-26T03:21:58.640Z,42.00
2019-02-26T03:24:30.643Z,42.00
2019-02-26T03:27:15.116Z,41.90
2019-02-26T03:29:52.407Z,41.80
2019-02-26T03:32:21.713Z,41.60
2019-02-26T03:35:07.050Z,41.70
2019-02-26T03:37:55.572Z,41.90
2019-02-26T03:40:33.114Z,41.90
2019-02-26T03:43:15.613Z,42.10
2019-02-26T03:46:01.867Z,42.20
2019-02-26T03:48:30.740Z,42.20
2019-02-26T03:51:12.144Z,42.10
2019-02-26T03:53:34.348Z,42.30
2019-02-26T03:56:39.467Z,42.30
2019-02-26T03:59:30.977Z,42.30
2019-02-26T04:02:02.170Z,42.30
2019-02-26T04:04:33.632Z,42.40
2019-02-26T04:07:51.710Z,42.40
2019-02-26T04:10:28.681Z,42.40
2019-02-26T04:13:05.508Z,42.40
2019-02-26T04:15:43.207Z,42.40
2019-02-26T04:18:56.374Z,42.40
2019-02-26T04:21:23.506Z,42.40
2019-02-26T04:24:11.919Z,42.40
2019-02-26T04:27:20.189Z,42.40
2019-02-26T04:30:22.831Z,42.40
2019-02-26T04:34:02.573Z,42.40
2019-02-26T04:37:21.707Z,42.30
2019-02-26T04:40:27.232Z,42.30
2019-02-26T04:43:54.935Z,42.10
2019-02-26T04:46:39.465Z,42.20
2019-02-26T04:49:36.298Z,42.20
2019-02-26T04:52:08.561Z,42.20
2019-02-26T04:55:04.723Z,42.10
2019-02-26T04:57:39.636Z,42.10
2019-02-26T05:00:10.597Z,42.10
2019-02-26T05:02:42.987Z,42.10
2019-02-26T05:05:34.291Z,42.00
2019-02-26T05:08:04.197Z,41.90
2019-02-26T05:10:34.368Z,42.10
2019-02-26T05:13:09.711Z,42.20
2019-02-26T05:15:38.307Z,42.10
2019-02-26T05:18:12.898Z,42.00
2019-02-26T05:20:47.940Z,42.00
2019-02-26T05:23:14.235Z,41.90
2019-02-26T05:25:46.913Z,41.90
2019-02-26T05:28:40.940Z,41.90
2019-02-26T05:33:57.725Z,42.00
2019-02-26T05:37:02.327Z,41.90
2019-02-26T05:39:51.659Z,41.90
2019-02-26T05:42:19.929Z,42.00
2019-02-26T05:44:48.970Z,41.90
2019-02-26T05:47:31.673Z,41.70
2019-02-26T05:50:06.928Z,41.70
2019-02-26T05:52:35.878Z,41.70
2019-02-26T05:55:09.891Z,41.70
2019-02-26T06:00:22.696Z,41.50
2019-02-26T06:02:58.856Z,41.50
2019-02-26T06:05:41.084Z,41.50
2019-02-26T06:08:07.632Z,42.10
2019-02-26T06:10:38.217Z,41.50
2019-02-26T06:13:10.697Z,41.40
2019-02-26T06:15:47.668Z,41.40
2019-02-26T06:18:41.174Z,41.40
2019-02-26T06:21:08.482Z,41.40
2019-02-26T06:23:47.919Z,41.30
2019-02-26T06:26:20.204Z,41.30
2019-02-26T06:28:54.919Z,41.40
2019-02-26T06:31:28.928Z,41.40
2019-02-26T06:34:01.509Z,41.30
2019-02-26T06:36:30.446Z,41.50
2019-02-26T06:39:01.317Z,41.50
2019-02-26T06:41:30.059Z,41.70
2019-02-26T06:43:58.941Z,42.00
2019-02-26T06:46:29.393Z,42.30
2019-02-26T06:48:59.796Z,42.50
2019-02-26T06:51:32.673Z,42.70
2019-02-26T06:54:07.630Z,42.90
2019-02-26T06:56:43.257Z,43.00
2019-02-26T06:59:12.100Z,43.00
2019-02-26T07:01:42.020Z,43.20
2019-02-26T07:04:12.905Z,43.50
2019-02-26T07:07:04.309Z,43.70
2019-02-26T07:09:36.829Z,43.90
2019-02-26T07:12:05.786Z,43.90
2019-02-26T07:18:34.748Z,43.80
2019-02-26T07:21:06.741Z,43.50
2019-02-26T07:23:38.083Z,43.20
2019-02-26T07:26:20.814Z,43.10
2019-02-26T07:28:51.062Z,43.20
2019-02-26T07:31:20.428Z,43.20
2019-02-26T07:33:51.124Z,43.30
2019-02-26T07:36:21.167Z,43.40
2019-02-26T07:41:29.848Z,43.70
2019-02-26T07:43:59.906Z,43.70
2019-02-26T07:46:35.445Z,43.60
2019-02-26T07:49:25.173Z,43.40
2019-02-26T07:51:59.802Z,43.20
2019-02-26T07:54:28.665Z,42.90
2019-02-26T07:57:17.968Z,42.80
2019-02-26T08:00:06.979Z,42.50
2019-02-26T08:02:37.604Z,42.20
2019-02-26T08:05:07.448Z,41.90
2019-02-26T08:07:36.730Z,41.80
2019-02-26T08:10:09.966Z,41.60
2019-02-26T08:12:59.207Z,41.40
2019-02-26T08:15:46.020Z,41.40
2019-02-26T08:18:23.144Z,41.40
2019-02-26T08:20:54.637Z,41.40
2019-02-26T08:23:26.251Z,41.40
2019-02-26T08:25:56.959Z,41.40
2019-02-26T08:46:14.104Z,40.40
2019-02-26T08:48:50.785Z,40.30
2019-02-26T08:51:37.396Z,40.20
2019-02-26T08:54:07.946Z,40.10
2019-02-26T08:56:52.129Z,40.00
2019-02-26T08:59:26.453Z,40.00
2019-02-26T09:02:05.662Z,39.90
2019-02-26T09:04:40.196Z,40.00
2019-02-26T09:07:09.042Z,40.00
2019-02-26T09:09:47.540Z,40.00
2019-02-26T09:12:17.524Z,40.10
2019-02-26T09:14:48.157Z,40.20
2019-02-26T09:17:20.923Z,40.20
2019-02-26T09:22:53.715Z,40.30
2019-02-26T09:25:25.944Z,40.50
2019-02-26T09:27:56.388Z,40.50
2019-02-26T09:30:31.598Z,40.70
2019-02-26T09:33:03.310Z,40.80
2019-02-26T09:35:37.836Z,40.90
2019-02-26T09:38:07.219Z,40.90
2019-02-26T09:40:36.131Z,40.80
2019-02-26T09:43:06.272Z,40.80
2019-02-26T09:45:36.795Z,40.60
2019-02-26T09:48:16.957Z,40.30
2019-02-26T09:51:17.169Z,40.20
2019-02-26T09:54:10.309Z,40.00
2019-02-26T09:56:40.734Z,39.90
2019-02-26T09:59:34.006Z,39.90
2019-02-26T10:02:05.579Z,39.80
2019-02-26T10:04:34.331Z,39.90
2019-02-26T10:07:15.140Z,40.00
2019-02-26T10:12:51.150Z,40.10
2019-02-26T10:15:19.628Z,40.20
2019-02-26T10:18:03.494Z,40.40
2019-02-26T10:20:31.902Z,40.50
2019-02-26T10:23:09.443Z,40.60
2019-02-26T10:25:38.916Z,40.70
2019-02-26T10:28:11.028Z,40.80
2019-02-26T10:30:41.584Z,40.90
2019-02-26T10:33:18.533Z,41.00
2019-02-26T10:35:50.012Z,41.10
2019-02-26T10:38:29.606Z,41.10
2019-02-26T10:41:21.295Z,41.00
2019-02-26T10:43:58.001Z,40.90
2019-02-26T10:46:27.184Z,40.80
2019-02-26T10:52:03.125Z,40.70
2019-02-26T10:54:40.536Z,40.80
2019-02-26T10:57:14.158Z,40.80
2019-02-26T11:00:02.600Z,40.80
2019-02-26T11:02:54.383Z,40.80
2019-02-26T11:05:27.149Z,40.80
2019-02-26T11:07:59.782Z,40.90
2019-02-26T11:10:30.759Z,40.90
2019-02-26T11:12:59.936Z,40.90
2019-02-26T11:15:35.404Z,40.90
2019-02-26T11:21:25.145Z,41.60
2019-02-26T11:23:54.588Z,41.00
2019-02-26T11:26:25.584Z,41.00
2019-02-26T11:28:54.828Z,41.00
2019-02-26T11:31:47.699Z,41.10
2019-02-26T11:34:17.253Z,41.10
2019-02-26T11:36:46.125Z,41.10
2019-02-26T11:39:16.437Z,41.20
2019-02-26T11:41:56.256Z,41.20
2019-02-26T11:47:23.270Z,40.70
2019-02-26T11:49:53.944Z,41.20
2019-02-26T11:52:55.051Z,41.20
2019-02-26T11:55:29.289Z,41.30
2019-02-26T11:58:22.321Z,41.30
2019-02-26T12:00:57.593Z,41.20
2019-02-26T12:03:38.910Z,41.40
2019-02-26T12:06:10.002Z,41.30
2019-02-26T12:08:44.885Z,41.30
2019-02-26T12:11:27.367Z,41.30
2019-02-26T12:13:56.262Z,41.40
2019-02-26T12:16:28.561Z,41.30
2019-02-26T12:18:58.881Z,41.30
2019-02-26T12:21:32.749Z,41.30
2019-02-26T12:24:12.918Z,41.30
2019-02-26T12:26:48.104Z,41.30
2019-02-26T12:32:22.328Z,41.30
2019-02-26T12:34:56.886Z,41.30
2019-02-26T12:37:37.045Z,41.30
2019-02-26T12:40:12.989Z,41.30
2019-02-26T12:42:41.298Z,41.30
2019-02-26T12:48:43.892Z,41.20
2019-02-26T12:51:26.313Z,41.20
2019-02-26T12:53:55.443Z,41.30
2019-02-26T12:56:29.878Z,41.30
2019-02-26T13:01:48.547Z,41.30
2019-02-26T13:04:21.553Z,41.20
2019-02-26T13:07:13.050Z,41.20
2019-02-26T13:09:54.226Z,41.30
2019-02-26T13:12:58.955Z,41.40
2019-02-26T13:15:23.807Z,41.20
2019-02-26T13:18:23.915Z,41.30
2019-02-26T13:20:59.466Z,41.20
2019-02-26T13:23:26.669Z,42.00
2019-02-26T13:25:57.351Z,41.40
2019-02-26T13:28:34.250Z,41.40
2019-02-26T13:31:22.776Z,41.50
2019-02-26T13:33:52.000Z,41.40
2019-02-26T13:36:21.441Z,41.50
2019-02-26T13:38:52.977Z,41.50
2019-02-26T13:43:52.789Z,41.50
2019-02-26T13:46:21.723Z,41.50
2019-02-26T13:48:50.969Z,41.50
2019-02-26T13:51:20.014Z,41.50
2019-02-26T13:53:49.196Z,41.60
2019-02-26T13:56:18.180Z,41.60
2019-02-26T13:58:59.673Z,41.60
2019-02-26T14:01:32.391Z,41.60
2019-02-26T14:04:01.633Z,41.70
2019-02-26T14:06:44.066Z,41.60
2019-02-26T14:11:50.389Z,41.70
2019-02-26T14:14:21.111Z,41.70
2019-02-26T14:16:49.958Z,41.70
2019-02-26T14:19:18.859Z,41.70
2019-02-26T14:21:47.890Z,41.80
2019-02-26T14:24:24.374Z,41.80
2019-02-26T14:26:57.817Z,41.80
2019-02-26T14:29:27.178Z,41.70
2019-02-26T14:31:59.432Z,41.70
2019-02-26T14:34:28.365Z,41.70
2019-02-26T14:37:01.098Z,41.70
2019-02-26T14:39:37.315Z,41.70
2019-02-26T14:42:24.169Z,41.70
2019-02-26T14:47:43.025Z,41.70
2019-02-26T14:50:14.215Z,41.60
2019-02-26T14:52:43.324Z,41.60
2019-02-26T14:58:05.534Z,41.60
2019-02-26T15:00:34.801Z,41.60
2019-02-26T15:03:11.482Z,41.50
2019-02-26T15:05:40.487Z,41.70
2019-02-26T15:08:09.690Z,41.60
2019-02-26T15:10:39.239Z,41.60
2019-02-26T15:13:08.045Z,41.60
2019-02-26T15:15:48.931Z,41.60
2019-02-26T15:18:10.304Z,41.50
2019-02-26T15:20:39.140Z,41.50
2019-02-26T15:23:07.988Z,41.50
2019-02-26T15:25:41.419Z,41.50
2019-02-26T15:28:29.410Z,41.50
2019-02-26T15:31:06.299Z,41.50
2019-02-26T15:33:35.409Z,41.50
2019-02-26T15:36:05.927Z,41.50
2019-02-26T15:38:53.526Z,41.50
2019-02-26T15:41:26.760Z,41.50
2019-02-26T15:44:33.100Z,41.50
2019-02-26T15:47:09.210Z,41.50
2019-02-26T15:49:41.246Z,41.60
2019-02-26T15:52:22.279Z,41.60
2019-02-26T15:55:10.162Z,41.60
2019-02-26T15:57:39.252Z,41.50
2019-02-26T16:00:11.412Z,41.50
2019-02-26T16:02:42.326Z,41.50
2019-02-26T16:05:35.672Z,41.50
2019-02-26T16:08:10.711Z,41.50
2019-02-26T16:10:39.542Z,41.60
2019-02-26T16:13:26.148Z,41.60
2019-02-26T16:15:59.500Z,41.60
2019-02-26T16:18:29.619Z,41.50
2019-02-26T16:21:21.943Z,41.50
2019-02-26T16:24:13.764Z,41.60
2019-02-26T16:26:47.052Z,41.60
2019-02-26T16:29:35.387Z,41.60
2019-02-26T16:34:54.325Z,41.70
2019-02-26T16:40:24.251Z,41.80
2019-02-26T16:43:08.002Z,41.90
2019-02-26T16:45:37.176Z,41.80
2019-02-26T16:48:15.359Z,41.90
2019-02-26T16:50:46.129Z,41.90
2019-02-26T16:53:15.367Z,41.90
2019-02-26T16:56:04.780Z,41.90
2019-02-26T16:58:35.580Z,42.00
2019-02-26T17:01:25.338Z,42.00
2019-02-26T17:03:54.135Z,42.00
2019-02-26T17:06:30.647Z,42.00
2019-02-26T17:08:59.753Z,42.00
2019-02-26T17:11:30.942Z,42.00
2019-02-26T17:14:00.565Z,42.00
2019-02-26T17:16:31.900Z,42.10
2019-02-26T17:19:00.428Z,42.10
2019-02-26T17:24:21.517Z,42.00
2019-02-26T17:27:38.955Z,42.00
2019-02-26T17:30:24.623Z,42.00
2019-02-26T17:32:54.025Z,42.00
2019-02-26T17:35:29.493Z,41.90
2019-02-26T17:37:57.862Z,41.90
2019-02-26T17:40:28.754Z,41.90
2019-02-26T17:42:58.073Z,41.90
2019-02-26T17:45:31.402Z,42.00
2019-02-26T17:48:09.503Z,42.00
2019-02-26T17:56:11.635Z,42.00
2019-02-26T17:58:41.685Z,42.10
2019-02-26T18:01:12.175Z,42.20
2019-02-26T18:03:44.590Z,42.40
2019-02-26T18:06:13.135Z,42.50
2019-02-26T18:08:49.369Z,42.40
2019-02-26T18:11:20.878Z,42.50
2019-02-26T18:13:49.847Z,42.60
2019-02-26T18:22:21.819Z,42.50
2019-02-26T18:24:58.088Z,42.50
2019-02-26T18:27:27.714Z,42.90
2019-02-26T18:30:02.640Z,43.40
2019-02-26T18:32:49.799Z,43.60
2019-02-26T18:35:03.932Z,43.90
2019-02-26T18:37:59.201Z,44.70
2019-02-26T18:40:39.848Z,45.40
2019-02-26T18:43:14.024Z,45.20
2019-02-26T18:48:30.325Z,46.10
2019-02-26T18:51:02.039Z,46.80
2019-02-26T18:53:49.401Z,46.90
2019-02-26T18:56:22.828Z,45.70
2019-02-26T18:58:53.782Z,45.30
2019-02-26T19:01:36.956Z,45.20
2019-02-26T19:04:07.548Z,45.30
2019-02-26T19:06:37.525Z,45.30
2019-02-26T19:09:39.837Z,45.40
2019-02-26T19:12:21.100Z,45.50
2019-02-26T19:14:45.153Z,44.90
2019-02-26T19:17:16.728Z,44.80
2019-02-26T19:19:45.723Z,45.00
2019-02-26T19:22:17.428Z,45.60
2019-02-26T19:24:46.373Z,45.50
2019-02-26T19:27:19.399Z,45.40
2019-02-26T19:29:48.253Z,45.40
2019-02-26T19:32:20.152Z,45.40
2019-02-26T19:34:53.596Z,45.30
2019-02-26T19:37:37.928Z,44.90
2019-02-26T19:40:08.585Z,44.60
2019-02-26T19:45:26.794Z,43.80
2019-02-26T19:47:56.546Z,43.60
2019-02-26T19:50:30.414Z,43.40
2019-02-26T19:53:02.192Z,43.30
2019-02-26T19:55:42.590Z,43.20
2019-02-26T19:58:18.331Z,43.30
2019-02-26T20:00:52.905Z,43.40
2019-02-26T20:03:24.138Z,43.50
2019-02-26T20:06:00.199Z,43.60
2019-02-26T20:08:54.494Z,43.70
2019-02-26T20:15:08.247Z,43.80
2019-02-26T20:17:48.974Z,43.90
2019-02-26T20:23:21.777Z,44.20
2019-02-26T20:25:53.617Z,44.10
2019-02-26T20:28:23.463Z,44.30
2019-02-26T20:31:15.184Z,44.20
2019-02-26T20:34:08.137Z,44.30
2019-02-26T20:36:45.799Z,44.20
2019-02-26T20:39:16.994Z,44.20
2019-02-26T20:41:55.529Z,44.20
2019-02-26T20:44:22.512Z,44.10
2019-02-26T20:46:57.995Z,44.00
2019-02-26T20:49:29.443Z,44.00
2019-02-26T20:52:10.438Z,43.90
2019-02-26T20:54:32.799Z,43.70
2019-02-26T20:57:04.027Z,43.60
2019-02-26T20:59:34.319Z,43.60
2019-02-26T21:02:07.879Z,43.50
2019-02-26T21:04:36.989Z,43.50
2019-02-26T21:07:06.097Z,43.30
2019-02-26T21:09:37.805Z,43.20
2019-02-26T21:14:47.747Z,43.10
2019-02-26T21:17:16.890Z,43.10
2019-02-26T21:19:47.306Z,43.00
2019-02-26T21:22:16.210Z,43.00
2019-02-26T21:27:43.705Z,42.80
2019-02-26T21:30:25.047Z,42.80
2019-02-26T21:33:01.240Z,42.90
2019-02-26T21:35:48.148Z,43.00
2019-02-26T21:38:17.127Z,43.10
2019-02-26T21:40:51.919Z,43.10
2019-02-26T21:43:23.010Z,43.30
2019-02-26T21:45:51.978Z,43.40
2019-02-26T21:48:22.340Z,43.40
2019-02-26T21:51:21.258Z,43.70
2019-02-26T21:54:03.462Z,43.80
2019-02-26T21:56:48.664Z,43.80
2019-02-26T21:59:26.881Z,43.90
2019-02-26T22:01:58.402Z,44.10
2019-02-26T22:04:31.698Z,44.20
2019-02-26T22:06:59.012Z,44.20
2019-02-26T22:09:30.180Z,44.20
2019-02-26T22:12:03.047Z,44.10
2019-02-26T22:14:34.003Z,44.10
2019-02-26T22:19:45.833Z,44.00
2019-02-26T22:22:16.611Z,44.00
2019-02-26T22:24:46.155Z,43.90
2019-02-26T22:27:15.181Z,43.90
2019-02-26T22:29:47.938Z,43.80
2019-02-26T22:32:16.935Z,43.90
2019-02-26T22:34:47.948Z,44.00
2019-02-26T22:37:20.343Z,44.10
2019-02-26T22:39:53.600Z,44.10
2019-02-26T22:42:26.975Z,44.00
2019-02-26T22:45:02.485Z,44.10
2019-02-26T22:47:34.457Z,44.00
2019-02-26T22:50:08.095Z,44.00
2019-02-26T22:52:39.540Z,43.90
2019-02-26T22:55:15.974Z,44.00
2019-02-26T22:57:46.811Z,44.20
2019-02-26T23:01:00.589Z,44.30
2019-02-26T23:03:36.657Z,44.30
2019-02-26T23:06:05.666Z,44.30
2019-02-26T23:08:36.257Z,44.40
2019-02-26T23:11:06.193Z,44.40
2019-02-26T23:13:39.568Z,44.60
2019-02-26T23:16:12.033Z,44.50
2019-02-26T23:18:41.209Z,44.30
2019-02-26T23:21:16.282Z,44.30
2019-02-26T23:26:41.686Z,44.30
2019-02-26T23:29:18.495Z,44.30
2019-02-26T23:31:54.981Z,44.30
2019-02-26T23:34:29.026Z,44.30
2019-02-26T23:37:01.494Z,44.30
2019-02-26T23:39:31.312Z,44.30
2019-02-26T23:42:06.712Z,44.30
2019-02-26T23:44:56.201Z,44.30
2019-02-26T23:47:25.382Z,44.20
2019-02-26T23:49:55.227Z,44.30
2019-02-26T23:52:34.562Z,44.40
2019-02-26T23:55:13.380Z,44.40
2019-02-26T23:57:41.919Z,44.30
